Time;durP1;ratioP1;P1;durP2;ratioP2;P2;SDS_P1;SDS_P2;PMS_P1;PMS_P2;Temp;Humidity;BMP_temperature;BMP_pressure;BME280_temperature;BME280_humidity;BME280_pressure;Samples;Min_cycle;Max_cycle;Signal;HPM_P1;HPM_P2
2023/05/11 00:01:51;;;;;;;34.20;20.05;;;13.20;99.90;;;;;;5057144;28;20040;-66
2023/05/11 00:04:17;;;;;;;32.08;20.23;;;13.20;99.90;;;;;;5072645;28;20041;-66
2023/05/11 00:06:43;;;;;;;35.08;20.80;;;13.20;99.90;;;;;;5073156;28;20036;-66
2023/05/11 00:09:10;;;;;;;32.33;20.02;;;13.10;99.90;;;;;;5056112;28;20033;-66
2023/05/11 00:11:36;;;;;;;33.72;20.52;;;13.10;99.90;;;;;;5039697;28;20298;-66
2023/05/11 00:14:02;;;;;;;34.10;19.58;;;13.10;99.90;;;;;;5056751;28;20108;-66
2023/05/11 00:16:28;;;;;;;37.70;20.77;;;13.10;99.90;;;;;;5056129;28;20114;-65
2023/05/11 00:18:54;;;;;;;33.97;20.20;;;13.10;99.90;;;;;;5056650;28;20037;-65
2023/05/11 00:21:21;;;;;;;34.75;20.10;;;13.20;99.90;;;;;;5056578;28;20444;-65
2023/05/11 00:23:48;;;;;;;41.40;20.70;;;13.20;99.90;;;;;;5072762;28;20029;-65
2023/05/11 00:26:14;;;;;;;38.22;19.83;;;13.20;99.90;;;;;;5056629;28;20117;-65
2023/05/11 00:28:42;;;;;;;35.92;20.23;;;13.10;99.90;;;;;;5072258;28;20033;-65
2023/05/11 00:31:11;;;;;;;33.45;19.45;;;13.10;99.90;;;;;;5055797;28;20079;-65
2023/05/11 00:33:36;;;;;;;34.38;19.77;;;13.10;99.90;;;;;;5056497;28;20029;-65
2023/05/11 00:36:03;;;;;;;37.88;20.05;;;13.10;99.90;;;;;;5072814;28;20106;-64
2023/05/11 00:38:29;;;;;;;36.22;20.45;;;13.10;99.90;;;;;;5055480;28;20045;-64
2023/05/11 00:40:55;;;;;;;36.00;20.00;;;13.00;99.90;;;;;;5055696;28;20036;-64
2023/05/11 00:43:21;;;;;;;33.70;19.05;;;13.10;99.90;;;;;;5056439;28;20111;-65
2023/05/11 00:45:48;;;;;;;30.30;19.65;;;13.10;99.90;;;;;;5056482;28;20125;-65
2023/05/11 00:48:15;;;;;;;36.97;19.42;;;13.10;99.90;;;;;;5072246;28;20041;-66
2023/05/11 00:50:41;;;;;;;31.70;18.35;;;12.90;99.90;;;;;;5055665;28;20125;-65
2023/05/11 00:53:07;;;;;;;35.83;19.50;;;12.90;99.90;;;;;;5056296;28;20442;-65
2023/05/11 00:55:33;;;;;;;34.72;19.70;;;13.10;99.90;;;;;;5055575;28;20304;-65
2023/05/11 00:58:01;;;;;;;35.03;21.02;;;13.10;99.90;;;;;;5056399;28;20037;-64
2023/05/11 01:00:27;;;;;;;36.53;20.02;;;12.90;99.90;;;;;;5039079;28;20044;-65
2023/05/11 01:02:53;;;;;;;39.38;21.40;;;12.90;99.90;;;;;;5042729;28;20408;-65
2023/05/11 01:05:19;;;;;;;31.52;19.95;;;12.90;99.90;;;;;;5059183;28;20048;-65
2023/05/11 01:07:58;;;;;;;38.75;21.02;;;13.00;99.90;;;;;;5059307;28;20305;-65
2023/05/11 01:10:27;;;;;;;40.92;21.15;;;13.00;99.90;;;;;;5076110;28;20024;-65
2023/05/11 01:13:15;;;;;;;30.60;20.10;;;13.00;99.90;;;;;;5075665;28;20025;-65
2023/05/11 01:15:45;;;;;;;33.65;21.35;;;13.10;99.90;;;;;;5076046;28;20032;-66
2023/05/11 01:18:30;;;;;;;34.85;20.08;;;13.10;99.90;;;;;;5075374;28;20033;-65
2023/05/11 01:21:02;;;;;;;33.78;21.00;;;13.10;99.90;;;;;;5075290;28;20182;-65
2023/05/11 01:23:37;;;;;;;35.55;20.25;;;13.00;99.90;;;;;;5075690;28;20052;-65
2023/05/11 01:26:16;;;;;;;34.38;20.05;;;13.10;99.90;;;;;;5060224;28;20047;-65
2023/05/11 01:29:00;;;;;;;34.50;20.08;;;13.10;99.90;;;;;;5075474;28;20037;-65
2023/05/11 01:31:30;;;;;;;31.63;18.65;;;13.10;99.90;;;;;;5075546;28;20032;-65
2023/05/11 01:34:02;;;;;;;32.42;19.00;;;13.00;99.90;;;;;;5075475;28;20021;-66
2023/05/11 01:36:35;;;;;;;32.75;18.75;;;12.90;99.90;;;;;;5075360;28;20029;-66
2023/05/11 01:39:06;;;;;;;35.00;18.40;;;12.90;99.90;;;;;;5075251;28;20025;-65
2023/05/11 01:41:34;;;;;;;33.05;17.55;;;13.00;99.90;;;;;;5075337;28;20108;-65
2023/05/11 01:44:09;;;;;;;31.63;16.67;;;13.10;99.90;;;;;;5059334;28;20025;-66
2023/05/11 01:46:35;;;;;;;24.80;14.98;;;13.20;99.90;;;;;;5059332;28;20043;-65
2023/05/11 01:49:05;;;;;;;25.88;14.82;;;13.00;99.90;;;;;;5075052;28;20032;-65
2023/05/11 01:51:36;;;;;;;20.98;13.20;;;13.00;99.90;;;;;;5059211;28;20337;-66
2023/05/11 01:54:05;;;;;;;25.83;13.32;;;13.00;99.90;;;;;;5075158;28;20062;-65
2023/05/11 01:56:32;;;;;;;21.40;12.88;;;12.80;99.90;;;;;;5074949;28;20400;-65
2023/05/11 01:58:59;;;;;;;21.42;12.18;;;12.70;99.90;;;;;;5058975;28;20040;-66
2023/05/11 02:01:27;;;;;;;23.85;12.55;;;12.60;99.90;;;;;;5074855;28;20408;-65
2023/05/11 02:03:54;;;;;;;22.02;12.52;;;12.60;99.90;;;;;;5057994;28;20055;-65
2023/05/11 02:06:22;;;;;;;26.20;14.10;;;12.50;99.90;;;;;;5058192;28;20392;-65
2023/05/11 02:08:49;;;;;;;24.10;13.10;;;12.50;99.90;;;;;;5058882;28;20025;-65
2023/05/11 02:11:17;;;;;;;23.58;13.88;;;12.60;99.90;;;;;;5074547;28;20032;-66
2023/05/11 02:13:45;;;;;;;24.10;13.13;;;12.70;99.90;;;;;;5058340;28;20036;-66
2023/05/11 02:16:13;;;;;;;26.45;13.93;;;12.80;99.90;;;;;;5041519;28;20096;-66
2023/05/11 02:18:40;;;;;;;21.20;13.73;;;12.70;99.90;;;;;;5058660;28;20025;-66
2023/05/11 02:21:08;;;;;;;22.20;11.13;;;12.80;99.90;;;;;;5057870;28;20040;-66
2023/05/11 02:23:35;;;;;;;22.58;10.23;;;12.80;99.90;;;;;;5074427;28;20037;-68
2023/05/11 02:26:03;;;;;;;21.00;9.65;;;12.60;99.90;;;;;;5058562;28;20118;-69
2023/05/11 02:28:30;;;;;;;20.95;9.50;;;12.80;99.90;;;;;;5058490;28;20079;-69
2023/05/11 02:31:04;;;;;;;20.80;9.25;;;12.80;99.90;;;;;;5074483;28;20447;-69
2023/05/11 02:33:35;;;;;;;18.83;8.10;;;12.90;99.90;;;;;;5074182;28;20356;-68
2023/05/11 02:36:04;;;;;;;16.00;8.38;;;12.80;99.90;;;;;;5074527;28;20041;-68
2023/05/11 02:38:33;;;;;;;25.52;8.88;;;12.90;99.90;;;;;;5041609;28;20040;-68
2023/05/11 02:41:11;;;;;;;16.92;8.10;;;12.90;99.90;;;;;;5057376;28;20037;-67
2023/05/11 02:43:41;;;;;;;22.27;9.07;;;12.90;99.90;;;;;;5058153;28;20033;-68
2023/05/11 02:46:13;;;;;;;22.15;8.20;;;12.90;99.90;;;;;;5074106;28;20048;-69
2023/05/11 02:48:45;;;;;;;20.35;7.85;;;13.00;99.90;;;;;;5073817;28;20415;-68
2023/05/11 02:51:15;;;;;;;19.63;8.25;;;13.00;99.90;;;;;;5074019;28;20102;-69
2023/05/11 02:53:47;;;;;;;21.58;8.23;;;13.00;99.90;;;;;;5041257;28;20055;-68
2023/05/11 02:56:14;;;;;;;21.25;8.80;;;13.00;99.90;;;;;;5073807;28;20198;-68
2023/05/11 02:58:41;;;;;;;18.92;8.60;;;12.90;99.90;;;;;;5057038;28;20392;-69
2023/05/11 03:01:20;;;;;;;15.98;8.10;;;12.90;99.90;;;;;;5073846;28;20029;-69
2023/05/11 03:03:46;;;;;;;21.00;8.98;;;12.90;99.90;;;;;;5073586;28;20293;-68
2023/05/11 03:06:13;;;;;;;16.30;8.95;;;12.90;99.90;;;;;;5040632;28;20029;-68
2023/05/11 03:08:40;;;;;;;18.65;8.20;;;12.70;99.90;;;;;;5057018;28;20044;-69
2023/05/11 03:11:07;;;;;;;17.05;7.75;;;12.70;99.90;;;;;;5074495;28;20262;-68
2023/05/11 03:13:34;;;;;;;21.30;8.98;;;12.70;99.90;;;;;;5056868;28;20033;-68
2023/05/11 03:16:03;;;;;;;59.70;39.47;;;12.70;99.90;;;;;;5040351;28;20076;-69
2023/05/11 03:18:32;;;;;;;19.17;9.27;;;12.70;99.90;;;;;;5040215;28;20037;-69
2023/05/11 03:21:00;;;;;;;18.58;8.45;;;12.50;99.90;;;;;;5073156;28;20409;-69
2023/05/11 03:23:29;;;;;;;20.88;8.60;;;12.40;99.90;;;;;;5056795;28;20303;-69
2023/05/11 03:25:57;;;;;;;24.63;9.55;;;12.40;99.90;;;;;;5040353;28;20036;-69
2023/05/11 03:28:24;;;;;;;18.60;8.88;;;12.40;99.90;;;;;;5073207;28;20029;-67
2023/05/11 03:30:58;;;;;;;20.58;8.98;;;12.50;99.90;;;;;;5041124;28;20029;-68
2023/05/11 03:33:24;;;;;;;20.50;9.20;;;12.60;99.90;;;;;;5040030;28;20041;-68
2023/05/11 03:35:52;;;;;;;17.30;8.63;;;12.60;99.90;;;;;;5056595;28;20029;-69
2023/05/11 03:38:23;;;;;;;15.52;8.65;;;12.60;99.90;;;;;;5057354;28;20029;-68
2023/05/11 03:40:52;;;;;;;23.13;9.45;;;12.70;99.90;;;;;;5056675;28;20365;-68
2023/05/11 03:43:20;;;;;;;24.73;9.52;;;12.60;99.90;;;;;;5056412;28;20102;-68
2023/05/11 03:45:51;;;;;;;21.45;9.35;;;12.60;99.90;;;;;;5057052;28;20397;-68
2023/05/11 03:48:19;;;;;;;25.15;9.10;;;12.50;99.90;;;;;;5056238;28;20036;-68
2023/05/11 03:50:46;;;;;;;21.00;9.45;;;12.60;99.90;;;;;;5072895;28;20293;-66
2023/05/11 03:53:12;;;;;;;25.67;9.38;;;12.50;99.90;;;;;;5056229;28;20047;-68
2023/05/11 03:55:38;;;;;;;19.58;10.25;;;12.40;99.90;;;;;;5039627;28;20032;-66
2023/05/11 03:58:09;;;;;;;24.40;11.60;;;12.40;99.90;;;;;;5072742;28;20341;-67
2023/05/11 04:00:39;;;;;;;23.33;13.20;;;12.40;99.90;;;;;;5072689;28;20029;-68
2023/05/11 04:03:06;;;;;;;25.92;13.48;;;12.30;99.90;;;;;;5056663;28;20297;-68
2023/05/11 04:05:32;;;;;;;24.50;12.77;;;12.20;99.90;;;;;;5055638;28;20083;-67
2023/05/11 04:08:01;;;;;;;22.17;13.52;;;12.10;99.90;;;;;;5072340;28;20039;-68
2023/05/11 04:10:27;;;;;;;23.65;12.77;;;12.00;99.90;;;;;;5072707;28;20400;-69
2023/05/11 04:12:53;;;;;;;30.80;13.63;;;11.90;99.90;;;;;;5056684;28;20124;-69
2023/05/11 04:15:19;;;;;;;24.50;13.20;;;11.90;99.90;;;;;;5055761;28;20041;-66
2023/05/11 04:17:47;;;;;;;25.63;13.95;;;11.80;99.90;;;;;;5072337;28;20033;-67
2023/05/11 04:20:13;;;;;;;26.58;14.25;;;12.10;99.90;;;;;;5072176;28;20312;-68
2023/05/11 04:22:38;;;;;;;24.30;13.75;;;12.10;99.90;;;;;;5056456;28;20033;-68
2023/05/11 04:25:04;;;;;;;28.10;14.15;;;12.10;99.90;;;;;;5055819;28;20021;-68
2023/05/11 04:27:34;;;;;;;27.55;14.15;;;12.30;99.90;;;;;;5039159;28;20041;-68
2023/05/11 04:30:00;;;;;;;23.55;12.82;;;12.30;99.90;;;;;;5072513;28;20029;-68
2023/05/11 04:32:29;;;;;;;29.90;12.43;;;12.30;99.90;;;;;;5072402;28;20095;-69
2023/05/11 04:34:55;;;;;;;24.77;12.27;;;12.30;99.90;;;;;;5073394;28;20356;-68
2023/05/11 04:37:23;;;;;;;25.70;12.70;;;12.20;99.90;;;;;;5059745;28;20040;-65
2023/05/11 04:39:50;;;;;;;25.02;12.98;;;12.40;99.90;;;;;;5076252;28;20057;-68
2023/05/11 04:42:16;;;;;;;22.83;12.27;;;12.50;99.90;;;;;;5076540;28;20124;-68
2023/05/11 04:44:44;;;;;;;33.13;13.20;;;12.50;99.90;;;;;;5076269;28;20398;-63
2023/05/11 04:47:11;;;;;;;31.63;12.57;;;12.60;99.90;;;;;;5060337;28;20032;-67
2023/05/11 04:49:38;;;;;;;27.33;12.00;;;12.60;99.90;;;;;;5059569;28;20401;-68
2023/05/11 04:52:05;;;;;;;23.67;11.10;;;12.50;99.90;;;;;;5076209;28;20029;-67
2023/05/11 04:54:30;;;;;;;29.17;11.93;;;12.20;99.90;;;;;;5076306;28;20029;-67
2023/05/11 04:56:56;;;;;;;29.85;12.48;;;12.20;99.90;;;;;;5076019;28;20454;-68
2023/05/11 04:59:22;;;;;;;28.63;12.13;;;12.30;99.90;;;;;;5075916;28;20075;-68
2023/05/11 05:01:49;;;;;;;31.33;12.48;;;12.20;99.90;;;;;;5042755;28;20036;-67
2023/05/11 05:04:15;;;;;;;32.53;12.55;;;12.30;99.90;;;;;;5075822;28;20049;-67
2023/05/11 05:06:41;;;;;;;29.42;12.65;;;12.30;99.90;;;;;;5075908;28;20143;-69
2023/05/11 05:09:07;;;;;;;33.40;12.48;;;12.20;99.90;;;;;;5059229;28;20029;-68
2023/05/11 05:11:33;;;;;;;28.60;12.32;;;12.20;99.90;;;;;;5075662;28;20396;-69
2023/05/11 05:14:00;;;;;;;27.20;12.48;;;12.20;99.90;;;;;;5075745;28;20052;-67
2023/05/11 05:16:27;;;;;;;27.35;12.40;;;12.20;99.90;;;;;;5059337;28;20049;-66
2023/05/11 05:18:53;;;;;;;35.40;13.43;;;12.30;99.90;;;;;;5059095;28;20024;-68
2023/05/11 05:21:19;;;;;;;30.48;12.35;;;12.30;99.90;;;;;;5059637;28;20033;-69
2023/05/11 05:23:45;;;;;;;31.23;13.65;;;12.30;99.90;;;;;;5075716;28;20029;-69
2023/05/11 05:26:11;;;;;;;31.40;12.77;;;12.30;99.90;;;;;;5059084;28;20033;-68
2023/05/11 05:28:38;;;;;;;31.25;12.65;;;12.40;99.90;;;;;;5042652;28;20351;-66
2023/05/11 05:31:04;;;;;;;32.75;13.75;;;12.60;99.90;;;;;;5058910;28;20055;-68
2023/05/11 05:33:31;;;;;;;38.15;13.52;;;12.80;99.90;;;;;;5059509;28;20033;-67
2023/05/11 05:35:57;;;;;;;33.83;13.35;;;13.10;99.90;;;;;;5058610;28;20040;-70
2023/05/11 05:38:23;;;;;;;32.20;13.57;;;13.00;99.90;;;;;;5058659;28;20033;-66
2023/05/11 05:40:50;;;;;;;42.53;14.10;;;13.20;99.90;;;;;;5075116;28;20131;-67
2023/05/11 05:43:16;;;;;;;32.45;13.63;;;13.50;99.90;;;;;;5058692;28;20033;-66
2023/05/11 05:45:42;;;;;;;36.45;14.35;;;13.70;99.90;;;;;;5075070;28;20044;-65
2023/05/11 05:48:08;;;;;;;41.53;13.35;;;13.70;99.90;;;;;;5074322;28;20087;-64
2023/05/11 05:50:34;;;;;;;28.10;13.02;;;13.90;99.90;;;;;;5075081;28;20289;-66
2023/05/11 05:53:00;;;;;;;40.20;14.43;;;13.90;99.90;;;;;;5041886;28;20037;-65
2023/05/11 05:55:28;;;;;;;32.80;14.50;;;14.30;99.90;;;;;;5041879;28;20039;-67
2023/05/11 05:57:55;;;;;;;30.48;13.52;;;14.70;99.90;;;;;;5041927;28;20032;-69
2023/05/11 06:00:22;;;;;;;29.48;12.57;;;14.70;99.90;;;;;;5041603;28;20097;-67
2023/05/11 06:02:56;;;;;;;25.30;12.77;;;14.80;99.90;;;;;;5059476;28;20025;-71
2023/05/11 06:05:25;;;;;;;28.35;12.73;;;14.90;99.90;;;;;;5074600;28;20045;-70
2023/05/11 06:07:51;;;;;;;31.73;12.43;;;14.60;99.90;;;;;;5058173;28;20312;-63
2023/05/11 06:10:20;;;;;;;26.83;12.52;;;14.60;99.90;;;;;;5074696;28;20132;-69
2023/05/11 06:12:46;;;;;;;28.90;12.98;;;14.90;99.90;;;;;;5025414;28;20025;-68
2023/05/11 06:15:12;;;;;;;27.30;12.77;;;15.10;99.90;;;;;;5075253;28;20060;-68
2023/05/11 06:17:41;;;;;;;26.52;13.50;;;15.40;99.90;;;;;;5074221;28;20029;-67
2023/05/11 06:20:08;;;;;;;31.02;13.52;;;15.50;99.90;;;;;;5024762;28;20372;-67
2023/05/11 06:22:34;;;;;;;29.05;11.82;;;15.40;99.90;;;;;;5074471;28;20393;-71
2023/05/11 06:25:01;;;;;;;32.83;14.02;;;14.50;99.90;;;;;;5058504;28;20025;-68
2023/05/11 06:27:28;;;;;;;29.38;13.50;;;14.60;99.90;;;;;;5074199;28;20090;-64
2023/05/11 06:29:56;;;;;;;27.52;13.75;;;14.70;99.90;;;;;;5057717;28;20056;-67
2023/05/11 06:32:24;;;;;;;37.83;14.10;;;14.50;99.90;;;;;;5073953;28;20079;-64
2023/05/11 06:34:50;;;;;;;28.58;12.25;;;14.60;99.90;;;;;;5057648;28;20037;-64
2023/05/11 06:37:19;;;;;;;25.83;12.75;;;14.60;99.90;;;;;;5057554;28;20080;-65
2023/05/11 06:39:48;;;;;;;27.58;13.00;;;14.90;99.90;;;;;;5057304;28;20102;-65
2023/05/11 06:42:13;;;;;;;25.40;11.90;;;15.00;99.90;;;;;;5057512;28;20021;-66
2023/05/11 06:44:40;;;;;;;25.90;11.93;;;15.10;99.90;;;;;;5057328;28;20021;-65
2023/05/11 06:47:07;;;;;;;25.00;11.52;;;15.20;99.90;;;;;;5057387;28;20039;-65
2023/05/11 06:49:33;;;;;;;28.80;13.20;;;15.60;99.90;;;;;;5073884;28;20029;-66
2023/05/11 06:51:59;;;;;;;29.98;13.18;;;15.50;99.90;;;;;;5040722;28;20120;-65
2023/05/11 06:54:25;;;;;;;27.67;11.65;;;15.60;99.90;;;;;;5058051;28;20333;-65
2023/05/11 06:56:51;;;;;;;23.45;12.45;;;15.50;99.90;;;;;;5057853;28;20083;-69
2023/05/11 06:59:17;;;;;;;32.95;12.90;;;14.70;99.90;;;;;;5072685;28;20028;-70
2023/05/11 07:01:42;;;;;;;30.40;12.90;;;14.40;99.90;;;;;;5057887;28;20040;-69
2023/05/11 07:04:08;;;;;;;21.02;11.35;;;14.20;99.90;;;;;;5057620;28;20065;-68
2023/05/11 07:06:34;;;;;;;27.95;13.05;;;14.50;99.90;;;;;;5073690;28;20071;-66
2023/05/11 07:09:02;;;;;;;25.48;12.52;;;14.60;99.90;;;;;;5057752;28;20033;-63
2023/05/11 07:11:29;;;;;;;27.60;13.15;;;15.10;99.90;;;;;;5057646;28;20032;-68
2023/05/11 07:13:55;;;;;;;27.88;12.63;;;15.10;99.90;;;;;;5057523;28;20071;-67
2023/05/11 07:16:22;;;;;;;32.78;13.38;;;14.80;99.90;;;;;;5058117;28;20403;-64
2023/05/11 07:18:48;;;;;;;26.55;12.73;;;15.00;99.90;;;;;;5056733;28;20392;-62
2023/05/11 07:21:14;;;;;;;26.88;12.40;;;15.30;99.90;;;;;;5073263;28;20106;-67
2023/05/11 07:23:40;;;;;;;28.23;12.30;;;15.20;99.90;;;;;;5040120;28;20135;-71
2023/05/11 07:26:08;;;;;;;28.88;12.35;;;14.50;99.90;;;;;;5056628;28;20408;-67
2023/05/11 07:28:37;;;;;;;26.10;12.73;;;14.20;99.90;;;;;;5056514;28;20410;-65
2023/05/11 07:31:03;;;;;;;25.85;12.00;;;14.50;99.90;;;;;;5057185;28;20040;-67
2023/05/11 07:33:29;;;;;;;24.85;12.23;;;14.60;99.90;;;;;;5072843;28;20400;-68
2023/05/11 07:35:55;;;;;;;28.60;12.60;;;14.30;99.90;;;;;;5056428;28;20037;-68
2023/05/11 07:38:21;;;;;;;32.08;12.85;;;14.40;99.90;;;;;;5073067;28;20021;-67
2023/05/11 07:40:47;;;;;;;26.35;12.82;;;14.70;99.90;;;;;;5039676;28;20037;-71
2023/05/11 07:43:13;;;;;;;28.67;12.38;;;14.30;99.90;;;;;;5056289;28;20351;-69
2023/05/11 07:45:39;;;;;;;28.13;12.50;;;13.90;99.90;;;;;;5056153;28;20105;-70
2023/05/11 07:48:04;;;;;;;30.50;12.00;;;13.70;99.90;;;;;;5072680;28;20037;-73
2023/05/11 07:50:30;;;;;;;21.35;12.02;;;13.80;99.90;;;;;;5056355;28;20092;-72
2023/05/11 07:52:56;;;;;;;23.05;11.75;;;13.80;99.90;;;;;;5056105;28;20025;-68
2023/05/11 07:55:25;;;;;;;30.10;12.48;;;14.00;99.90;;;;;;5056851;28;20044;-70
2023/05/11 07:57:53;;;;;;;22.17;11.80;;;14.00;99.90;;;;;;5072871;28;20312;-71
2023/05/11 08:00:19;;;;;;;20.13;10.75;;;14.00;99.90;;;;;;5055964;28;20034;-68
2023/05/11 08:02:45;;;;;;;22.10;10.30;;;14.00;99.90;;;;;;5056245;28;20025;-72
2023/05/11 08:05:11;;;;;;;23.63;11.60;;;14.20;99.90;;;;;;5072518;28;20118;-70
2023/05/11 08:07:37;;;;;;;21.13;11.45;;;14.30;99.90;;;;;;5022827;28;20033;-63
2023/05/11 08:10:03;;;;;;;26.42;11.77;;;14.50;99.90;;;;;;5056695;28;20041;-64
2023/05/11 08:12:29;;;;;;;22.13;11.93;;;14.80;99.90;;;;;;5056964;28;20044;-70
2023/05/11 08:14:55;;;;;;;16.65;10.20;;;14.60;99.90;;;;;;5072437;28;20033;-69
2023/05/11 08:17:20;;;;;;;20.13;9.65;;;14.30;99.90;;;;;;5055735;28;20033;-70
2023/05/11 08:19:46;;;;;;;16.65;9.18;;;14.50;99.90;;;;;;5072400;28;20037;-66
2023/05/11 08:22:12;;;;;;;17.33;9.40;;;14.80;99.90;;;;;;5072475;28;20099;-67
2023/05/11 08:24:38;;;;;;;19.85;10.43;;;15.10;99.90;;;;;;5055794;28;20032;-71
2023/05/11 08:27:04;;;;;;;14.50;9.70;;;14.90;99.30;;;;;;5055617;28;20033;-66
2023/05/11 08:29:30;;;;;;;20.05;10.25;;;14.70;99.90;;;;;;5072453;28;20040;-67
2023/05/11 08:31:57;;;;;;;17.33;10.32;;;15.20;99.90;;;;;;5055768;28;20033;-68
2023/05/11 08:34:23;;;;;;;15.75;9.13;;;15.10;99.70;;;;;;5055858;28;20067;-66
2023/05/11 08:36:49;;;;;;;20.15;8.93;;;15.70;98.20;;;;;;5055585;28;20089;-66
2023/05/11 08:39:15;;;;;;;20.50;9.10;;;16.30;95.10;;;;;;5056343;28;20044;-66
2023/05/11 08:41:44;;;;;;;19.80;8.13;;;16.40;84.40;;;;;;5056435;28;20277;-65
2023/05/11 08:44:12;;;;;;;16.60;7.97;;;16.70;84.80;;;;;;5072379;28;20028;-64
2023/05/11 08:46:40;;;;;;;13.57;7.97;;;17.10;78.70;;;;;;5056420;28;20032;-65
2023/05/11 08:49:07;;;;;;;15.75;8.07;;;17.20;72.40;;;;;;5055580;28;20458;-65
2023/05/11 08:51:34;;;;;;;20.23;9.80;;;17.40;59.90;;;;;;5072246;28;20033;-68
2023/05/11 08:53:59;;;;;;;23.65;9.35;;;16.20;85.20;;;;;;5072094;28;20059;-68
2023/05/11 08:56:28;;;;;;;17.02;9.10;;;15.60;97.50;;;;;;5072089;28;20036;-69
2023/05/11 08:58:57;;;;;;;12.40;7.72;;;15.40;97.30;;;;;;5056118;28;20037;-65
2023/05/11 09:01:27;;;;;;;15.00;8.27;;;15.90;97.20;;;;;;5056548;28;20423;-65
2023/05/11 09:03:55;;;;;;;13.55;7.70;;;16.50;83.70;;;;;;5071850;28;20052;-61
2023/05/11 09:06:23;;;;;;;11.05;6.82;;;17.10;68.90;;;;;;5056053;28;20029;-63
2023/05/11 09:08:49;;;;;;;13.18;6.95;;;17.40;51.40;;;;;;5056114;28;20399;-68
2023/05/11 09:11:16;;;;;;;18.42;7.63;;;17.80;43.90;;;;;;5038867;28;20033;-65
2023/05/11 09:13:41;;;;;;;15.02;7.80;;;18.00;35.10;;;;;;5055470;28;20037;-60
2023/05/11 09:16:07;;;;;;;14.02;7.65;;;18.20;22.10;;;;;;5056351;28;20458;-62
2023/05/11 09:18:33;;;;;;;13.85;8.48;;;17.90;36.00;;;;;;5038731;28;20047;-61
2023/05/11 09:21:01;;;;;;;16.35;8.30;;;18.00;44.70;;;;;;5056089;28;20041;-67
2023/05/11 09:23:26;;;;;;;19.98;9.27;;;18.10;30.00;;;;;;5059377;28;20029;-65
2023/05/11 09:25:53;;;;;;;17.38;7.82;;;18.10;39.60;;;;;;5059736;28;20086;-66
2023/05/11 09:28:25;;;;;;;15.75;7.28;;;18.30;42.80;;;;;;5059680;28;20327;-62
2023/05/11 09:30:52;;;;;;;;;;;17.70;49.10;;;;;;5075920;28;20040;-62
2023/05/11 09:33:22;;;;;;;13.25;6.28;;;16.70;56.50;;;;;;5058766;28;19931;-64
2023/05/11 09:35:49;;;;;;;12.77;6.28;;;17.20;55.80;;;;;;5058976;28;20029;-63
2023/05/11 09:38:18;;;;;;;14.13;6.38;;;16.80;50.60;;;;;;5059436;28;20390;-62
2023/05/11 09:40:54;;;;;;;12.65;6.72;;;16.30;58.80;;;;;;5059327;28;20045;-65
2023/05/11 09:43:23;;;;;;;12.95;6.32;;;15.60;76.80;;;;;;5058608;28;20032;-67
2023/05/11 09:45:52;;;;;;;13.70;7.10;;;15.90;82.80;;;;;;5075230;28;20025;-61
2023/05/11 09:48:18;;;;;;;13.20;6.10;;;16.20;81.40;;;;;;5059224;28;20040;-60
2023/05/11 09:50:44;;;;;;;12.55;7.28;;;17.00;60.30;;;;;;5059650;28;20077;-60
2023/05/11 09:53:10;;;;;;;12.02;6.25;;;17.40;34.00;;;;;;5059048;28;20379;-62
2023/05/11 09:55:36;;;;;;;14.70;6.25;;;17.20;33.40;;;;;;5059105;28;20040;-60
2023/05/11 09:58:03;;;;;;;11.77;6.07;;;16.90;49.00;;;;;;5059036;28;20078;-60
2023/05/11 10:00:29;;;;;;;12.85;6.47;;;17.40;39.60;;;;;;5058963;28;20047;-65
2023/05/11 10:03:06;;;;;;;13.50;6.80;;;18.00;18.20;;;;;;5058128;28;20094;-61
2023/05/11 10:05:34;;;;;;;10.18;5.40;;;18.40;10.10;;;;;;5058068;28;20132;-60
2023/05/11 10:08:04;;;;;;;10.85;5.97;;;18.90;11.60;;;;;;5058866;28;20120;-59
2023/05/11 10:10:32;;;;;;;17.33;6.75;;;19.60;1.00;;;;;;5059358;28;20025;-62
2023/05/11 10:13:00;;;;;;;16.15;8.10;;;19.80;1.00;;;;;;5058838;28;20352;-63
2023/05/11 10:15:31;;;;;;;14.38;6.80;;;19.70;1.00;;;;;;5074800;28;20343;-63
2023/05/11 10:17:59;;;;;;;13.35;7.88;;;19.60;1.00;;;;;;5058674;28;20036;-63
2023/05/11 10:20:26;;;;;;;15.05;8.00;;;19.60;1.00;;;;;;5058755;28;20045;-63
2023/05/11 10:22:54;;;;;;;13.98;7.63;;;19.00;1.00;;;;;;5058562;28;20039;-62
2023/05/11 10:25:24;;;;;;;12.18;7.60;;;18.90;1.00;;;;;;5058546;28;20274;-62
2023/05/11 10:27:51;;;;;;;12.80;7.28;;;19.30;1.00;;;;;;5058907;28;20028;-61
2023/05/11 10:30:17;;;;;;;13.27;7.35;;;19.60;1.00;;;;;;5058484;28;20278;-58
2023/05/11 10:32:47;;;;;;;14.60;7.25;;;19.30;1.00;;;;;;5074289;28;20033;-61
2023/05/11 10:35:13;;;;;;;11.40;6.43;;;19.50;1.00;;;;;;5059114;28;20044;-63
2023/05/11 10:37:45;;;;;;;10.13;6.63;;;19.50;1.00;;;;;;5041051;28;20029;-60
2023/05/11 10:40:12;;;;;;;15.60;7.47;;;18.40;1.00;;;;;;5058537;28;20029;-59
2023/05/11 10:42:40;;;;;;;11.82;6.93;;;17.90;1.00;;;;;;5057432;28;20122;-62
2023/05/11 10:45:17;;;;;;;13.20;6.95;;;18.70;1.00;;;;;;5058111;28;20084;-58
2023/05/11 10:47:46;;;;;;;13.80;7.30;;;18.30;1.00;;;;;;5058159;28;20036;-60
2023/05/11 10:50:23;;;;;;;21.50;12.88;;;18.70;1.00;;;;;;5058058;28;20033;-61
2023/05/11 10:53:30;;;;;;;20.75;13.82;;;19.50;1.00;;;;;;5074075;28;20025;-61
2023/05/11 10:56:26;;;;;;;17.38;11.30;;;19.80;1.00;;;;;;5057297;28;20033;-62
2023/05/11 10:59:27;;;;;;;16.88;9.35;;;20.30;1.00;;;;;;5051340;28;20045;-61
2023/05/11 11:01:57;;;;;;;13.93;9.20;;;20.60;1.00;;;;;;4987493;28;20133;-64
2023/05/11 11:04:23;;;;;;;14.63;9.00;;;21.00;1.00;;;;;;5056923;28;20172;-63
2023/05/11 11:07:03;;;;;;;14.93;7.97;;;21.00;1.00;;;;;;5057726;28;20108;-62
2023/05/11 11:09:48;;;;;;;14.27;8.48;;;21.20;1.00;;;;;;5057491;28;20032;-62
2023/05/11 11:12:14;;;;;;;13.07;8.35;;;21.60;1.00;;;;;;5073421;28;20392;-59
2023/05/11 11:15:09;;;;;;;13.93;8.10;;;22.10;1.00;;;;;;5057639;28;20045;-63
2023/05/11 11:17:35;;;;;;;11.10;7.22;;;23.80;1.00;;;;;;5040579;28;20045;-62
2023/05/11 11:20:06;;;;;;;11.07;7.03;;;24.00;1.00;;;;;;5058027;28;20097;-60
2023/05/11 11:22:34;;;;;;;11.00;7.68;;;23.70;1.00;;;;;;5057399;28;20021;-63
2023/05/11 11:25:39;;;;;;;14.20;8.05;;;23.10;99.90;;;;;;5057210;28;20033;-64
2023/05/11 11:28:05;;;;;;;14.77;8.43;;;22.40;1.00;;;;;;5027656;28;20068;-60
2023/05/11 11:30:31;;;;;;;11.10;8.32;;;21.90;1.00;;;;;;5057733;28;20143;-64
2023/05/11 11:33:11;;;;;;;11.75;8.23;;;22.00;1.00;;;;;;5057240;28;20451;-61
2023/05/11 11:35:40;;;;;;;8.23;5.85;;;23.10;1.00;;;;;;5057251;28;20029;-62
2023/05/11 11:38:11;;;;;;;11.07;6.90;;;24.70;1.00;;;;;;5073152;28;20120;-66
2023/05/11 11:40:38;;;;;;;10.35;6.10;;;26.10;99.90;;;;;;5056991;28;20055;-64
2023/05/11 11:43:11;;;;;;;10.15;5.85;;;27.20;1.00;;;;;;5057020;28;20079;-64
2023/05/11 11:45:38;;;;;;;11.45;6.30;;;27.50;1.00;;;;;;5056444;28;20137;-61
2023/05/11 11:48:15;;;;;;;30.58;6.65;;;26.50;50.10;;;;;;5056309;28;20086;-61
2023/05/11 11:50:43;;;;;;;30.25;7.75;;;26.20;13.90;;;;;;5057684;28;20036;-60
2023/05/11 11:53:10;;;;;;;10.48;5.20;;;26.50;99.90;;;;;;5057110;28;20114;-62
2023/05/11 11:55:50;;;;;;;8.68;5.60;;;28.50;1.00;;;;;;5073001;28;20265;-61
2023/05/11 11:58:44;;;;;;;12.40;7.82;;;29.00;1.00;;;;;;5057302;28;20392;-61
2023/05/11 12:01:24;;;;;;;11.35;7.43;;;27.60;1.00;;;;;;5056808;28;20036;-60
2023/05/11 12:04:12;;;;;;;12.20;6.72;;;26.00;1.00;;;;;;5056710;28;20429;-62
2023/05/11 12:06:39;;;;;;;10.70;7.13;;;26.40;1.00;;;;;;5056775;28;20083;-62
2023/05/11 12:09:06;;;;;;;13.57;7.63;;;26.30;1.00;;;;;;5056714;28;20028;-62
2023/05/11 12:11:33;;;;;;;11.98;8.07;;;27.60;99.90;;;;;;5057085;28;20305;-62
2023/05/11 12:14:00;;;;;;;10.90;7.13;;;29.50;1.00;;;;;;5056131;28;20060;-62
2023/05/11 12:16:27;;;;;;;10.02;6.57;;;31.00;99.90;;;;;;5055879;28;20445;-65
2023/05/11 12:18:57;;;;;;;11.18;7.32;;;31.50;63.40;;;;;;5056527;28;20036;-63
2023/05/11 12:21:26;;;;;;;13.60;8.40;;;31.30;1.00;;;;;;5056719;28;20032;-63
2023/05/11 12:23:56;;;;;;;18.48;10.18;;;31.20;1.00;;;;;;5056583;28;20040;-64
2023/05/11 12:26:23;;;;;;;20.98;9.93;;;30.60;1.00;;;;;;5072633;28;20049;-62
2023/05/11 12:28:50;;;;;;;13.55;8.00;;;29.70;1.00;;;;;;5056622;28;20112;-62
2023/05/11 12:31:19;;;;;;;14.05;8.68;;;30.20;1.00;;;;;;5056651;28;20114;-64
2023/05/11 12:33:50;;;;;;;12.48;8.57;;;31.80;1.00;;;;;;5056655;28;20044;-64
2023/05/11 12:36:17;;;;;;;11.98;8.02;;;32.40;1.00;;;;;;5055921;28;20033;-66
2023/05/11 12:38:47;;;;;;;12.25;7.78;;;33.90;1.00;;;;;;5072463;28;20123;-65
2023/05/11 12:41:21;;;;;;;16.67;11.32;;;34.70;1.00;;;;;;5056459;28;20069;-63